»·PEaware :: SWA3800 KLAS-KONT

SWA3800 :: KLAS-KONT

FLIGHT INFORMATION

Flight Status: Arrived
Operator:
Southwest Airlines
More flights by this operator :: More flights under this callsign
Pilot: Steve P. (28919)
Aircraft: SAAB 340
(SF34)
More flights by this aircraft type
Origin: KLAS McCarran Intl
United States
Destination: KONT Ontario Intl
United States
More flights between these airports :: More routes between these airports
Route: +MCCRN5 HEC ZIGGY7
File this flight plan on PilotEdge
Remarks:
Altitude:
(Current/Filed)
18,000ft
Speed:
(Current/Filed)
260kts
Departed: 09-May-20 06:49 PM
Arrived: 09-May-20 07:40 PM
Distance/Time
Traveled:
171nm/0:51
Distance/Time
To Go:
Arrived

Flight Plot

Page will automatically refresh every two minutes.


Map Options




Map Legend


Flown Route
Filed Route
Departure Airport
Arrival Airport
Navaid (VOR, NDB)
Fix

Horizontal Profiles

Position Reports

Time Latitude Longitude Heading Altitude Ground
Speed
09-May-20 18:08 36.080181 -115.145704 270 2089ft 0kts
09-May-20 18:09 36.080181 -115.145704 270 2089ft 0kts
09-May-20 18:10 36.080181 -115.145704 270 2089ft 0kts
09-May-20 18:11 36.080181 -115.145704 270 2089ft 0kts
09-May-20 18:12 36.080181 -115.145704 270 2089ft 0kts
09-May-20 18:13 36.080181 -115.145704 270 2089ft 0kts
09-May-20 18:14 36.080181 -115.145704 270 2089ft 0kts
09-May-20 18:15 36.080181 -115.145704 270 2089ft 0kts
09-May-20 18:16 36.080181 -115.145704 270 2089ft 0kts
09-May-20 18:17 36.080181 -115.145704 270 2089ft 0kts
09-May-20 18:18 36.080181 -115.145704 270 2089ft 0kts
09-May-20 18:19 36.080181 -115.145704 270 2089ft 0kts
09-May-20 18:20 36.080181 -115.145704 270 2089ft 0kts
09-May-20 18:21 36.080181 -115.145704 270 2089ft 0kts
09-May-20 18:22 36.080181 -115.145704 270 2089ft 0kts
09-May-20 18:23 36.080181 -115.145704 270 2089ft 0kts
09-May-20 18:24 36.080181 -115.145704 270 2089ft 0kts
09-May-20 18:25 36.080181 -115.145704 270 2089ft 0kts
09-May-20 18:26 36.080181 -115.145704 270 2089ft 0kts
09-May-20 18:27 36.080181 -115.145707 270 2089ft 0kts
09-May-20 18:28 36.080210 -115.145058 241 2087ft 2kts
09-May-20 18:29 36.080495 -115.144853 179 2086ft 0kts
09-May-20 18:30 36.080494 -115.144853 179 2086ft 0kts
09-May-20 18:31 36.080494 -115.144853 179 2086ft 0kts
09-May-20 18:32 36.080494 -115.144853 179 2086ft 0kts
09-May-20 18:33 36.080494 -115.144853 179 2086ft 0kts
09-May-20 18:34 36.080494 -115.144853 179 2086ft 0kts
09-May-20 18:35 36.080494 -115.144853 179 2086ft 0kts
09-May-20 18:36 36.080494 -115.144853 179 2086ft 0kts
09-May-20 18:37 36.080188 -115.144844 177 2087ft 4kts
09-May-20 18:38 36.078713 -115.144828 173 2090ft 6kts
09-May-20 18:40 36.078272 -115.141138 89 2079ft 15kts
09-May-20 18:41 36.078271 -115.135025 93 2062ft 18kts
09-May-20 18:42 36.078281 -115.128461 89 2042ft 18kts
09-May-20 18:43 36.078237 -115.122690 113 2032ft 9kts
09-May-20 18:44 36.077989 -115.122263 128 2033ft 0kts
09-May-20 18:45 36.077989 -115.122263 128 2033ft 0kts
09-May-20 18:46 36.077989 -115.122263 128 2033ft 0kts
09-May-20 18:47 36.077438 -115.121444 135 2033ft 0kts
09-May-20 18:48 36.076509 -115.121403 235 2035ft 5kts
09-May-20 18:49 36.076464 -115.153788 270 3022ft 156kts
09-May-20 18:50 36.078048 -115.204616 272 6116ft 148kts
09-May-20 18:51 36.050612 -115.247544 202 7043ft 234kts
09-May-20 18:52 35.991611 -115.264392 193 9659ft 204kts
09-May-20 18:53 35.935666 -115.278776 193 11740ft 208kts
09-May-20 18:54 35.878348 -115.293799 193 13596ft 212kts
09-May-20 18:55 35.820022 -115.308722 193 15257ft 218kts
09-May-20 18:55 35.770380 -115.321144 193 16707ft 221kts
09-May-20 18:57 35.699467 -115.339348 198 18438ft 226kts
09-May-20 18:58 35.636661 -115.361705 198 19074ft 253kts
09-May-20 18:59 35.575654 -115.394943 231 20075ft 234kts
09-May-20 18:59 35.541190 -115.448061 231 20065ft 243kts
09-May-20 19:00 35.496046 -115.510694 228 20063ft 245kts
09-May-20 19:01 35.451407 -115.574130 227 20062ft 246kts
09-May-20 19:03 35.402288 -115.650651 242 20064ft 246kts
09-May-20 19:03 35.372233 -115.710716 226 20001ft 248kts
09-May-20 19:04 35.324425 -115.771942 227 19974ft 248kts
09-May-20 19:05 35.277359 -115.834253 227 19929ft 248kts
09-May-20 19:06 35.230476 -115.896209 227 19927ft 247kts
09-May-20 19:07 35.183857 -115.957695 227 19926ft 246kts
09-May-20 19:08 35.137272 -116.019021 227 19925ft 246kts
09-May-20 19:09 35.090507 -116.080473 227 19925ft 246kts
09-May-20 19:10 35.043809 -116.141679 227 19925ft 246kts
09-May-20 19:11 34.997116 -116.202797 227 19934ft 246kts
09-May-20 19:12 34.950445 -116.263725 227 19936ft 247kts
09-May-20 19:13 34.903422 -116.325021 227 19925ft 248kts
09-May-20 19:14 34.856907 -116.386925 228 19599ft 244kts
09-May-20 19:15 34.808628 -116.445842 226 18409ft 245kts
09-May-20 19:16 34.761495 -116.504791 226 17423ft 242kts
09-May-20 19:17 34.714796 -116.563232 226 16513ft 240kts
09-May-20 19:18 34.668871 -116.620573 225 15269ft 237kts
09-May-20 19:19 34.622828 -116.677134 225 14065ft 233kts
09-May-20 19:20 34.577046 -116.733212 225 13437ft 232kts
09-May-20 19:21 34.531792 -116.788556 225 12852ft 231kts
09-May-20 19:22 34.486686 -116.843627 225 12322ft 229kts
09-May-20 19:23 34.442029 -116.898060 225 12000ft 223kts
09-May-20 19:24 34.395804 -116.954318 225 12022ft 242kts
09-May-20 19:25 34.348080 -117.012309 224 12048ft 244kts
09-May-20 19:26 34.299901 -117.070747 224 12065ft 245kts
09-May-20 19:27 34.252265 -117.128452 224 11576ft 240kts
09-May-20 19:28 34.205594 -117.184866 224 10437ft 226kts
09-May-20 19:29 34.160995 -117.238601 223 9334ft 225kts
09-May-20 19:30 34.110286 -117.213141 133 8324ft 225kts
09-May-20 19:31 34.062805 -117.202068 238 6161ft 211kts
09-May-20 19:32 34.054998 -117.259073 272 5865ft 158kts
09-May-20 19:33 34.056608 -117.312738 269 5314ft 159kts
09-May-20 19:34 34.056917 -117.364874 268 4648ft 154kts
09-May-20 19:35 34.056955 -117.416415 268 3392ft 162kts
09-May-20 19:36 34.056989 -117.467333 268 2769ft 151kts
09-May-20 19:37 34.056970 -117.517549 268 1931ft 148kts
09-May-20 19:38 34.057014 -117.562875 268 1251ft 109kts
09-May-20 19:39 34.056901 -117.592976 270 927ft 30kts
09-May-20 19:40 34.057830 -117.599829 1 931ft 4kts
09-May-20 19:41 34.060072 -117.599957 36 936ft 0kts

Navigation Log

Ident Type
Flight plan parsing failed, navigation log unavailable